Mahajanga, Madagascar
Current Conditions -  °F | °C
As of 4:00 AM on Tuesday 25 Nov 2014 (Local Time) from FMNM Reporting Station
Scattered Clouds Scattered Clouds  
Wind Chill: 79°   Ceiling: Unl
Heat Index: 82°   Visibility: 6mi
Dew Point: 73°   Wind: 9mph
Humidity: 83%   Direction: 140°SE
Pressure: 29.85"   Gusts: NA
Location:  15.72°S, 46.31°E
Report Text: FMNM 250100Z 14008KT FEW020 SCT040 26/23 Q1011
Loading
Personal Weather Stations






























Interactive Weather Map New forecast layout! Learn more

10-Day Weather Forecast

Advertisements
Track Severe Weather on mobile